createdAt,value
2022-11-10T00:05:47.388Z,45.53
2022-11-10T00:09:38.289Z,48.08
2022-11-10T00:32:54.085Z,58.23
2022-11-10T00:52:01.246Z,84.32
2022-11-10T01:02:02.365Z,92.03
2022-11-10T01:10:23.105Z,109.18
2022-11-10T01:14:04.937Z,97.13
2022-11-10T01:36:25.108Z,105.05
2022-11-10T01:40:15.753Z,97.20
2022-11-10T02:43:02.059Z,101.80
2022-11-10T02:55:42.931Z,101.45
2022-11-10T03:58:09.271Z,75.45
2022-11-10T04:41:09.901Z,68.65
2022-11-10T04:44:56.542Z,64.32
2022-11-10T04:53:49.491Z,57.38
2022-11-10T05:07:16.604Z,44.90
2022-11-10T05:53:00.558Z,24.30
2022-11-10T05:58:31.860Z,22.75
2022-11-10T06:01:18.315Z,25.92
2022-11-10T06:05:05.583Z,24.35
2022-11-10T06:08:52.909Z,24.85
2022-11-10T06:36:02.008Z,24.27
2022-11-10T06:39:53.902Z,23.00
2022-11-10T06:43:34.922Z,23.52
2022-11-10T06:55:38.572Z,16.85
2022-11-10T06:59:43.256Z,20.58
2022-11-10T07:04:13.072Z,25.55
2022-11-10T07:22:27.300Z,15.83
2022-11-10T07:30:24.658Z,15.23
2022-11-10T07:34:09.810Z,14.60
2022-11-10T07:37:55.555Z,19.50
2022-11-10T08:41:10.677Z,49.25
2022-11-10T08:45:32.916Z,46.08
2022-11-10T08:54:40.677Z,47.70
2022-11-10T09:02:38.195Z,38.10
2022-11-10T09:06:26.183Z,38.78
2022-11-10T09:10:08.935Z,37.38
2022-11-10T09:14:22.378Z,40.15
2022-11-10T09:18:29.281Z,39.65
2022-11-10T09:22:22.711Z,38.63
2022-11-10T09:26:20.677Z,38.78
2022-11-10T09:30:03.312Z,38.35
2022-11-10T09:34:29.194Z,52.42
2022-11-10T09:38:19.681Z,48.25
2022-11-10T09:46:34.809Z,44.42
2022-11-10T09:50:32.620Z,41.20
2022-11-10T09:54:43.797Z,36.63
2022-11-10T09:58:44.776Z,40.67
2022-11-10T10:07:14.803Z,40.08
2022-11-10T10:11:25.888Z,37.00
2022-11-10T10:15:36.667Z,42.40
2022-11-10T10:19:23.442Z,54.80
2022-11-10T10:24:02.238Z,54.45
2022-11-10T10:27:35.079Z,47.00
2022-11-10T10:36:05.450Z,43.92
2022-11-10T10:39:51.998Z,43.78
2022-11-10T10:43:34.713Z,37.35
2022-11-10T10:47:15.587Z,44.05
2022-11-10T10:50:56.069Z,42.55
2022-11-10T10:58:58.243Z,37.97
2022-11-10T11:02:40.069Z,28.90
2022-11-10T11:06:31.111Z,31.70
2022-11-10T11:10:19.957Z,30.63
2022-11-10T11:14:26.744Z,30.65
2022-11-10T11:18:35.827Z,28.25
2022-11-10T11:22:32.670Z,26.98
2022-11-10T11:26:24.116Z,27.58
2022-11-10T11:30:26.105Z,25.55
2022-11-10T11:38:54.114Z,24.33
2022-11-10T11:42:50.435Z,25.70
2022-11-10T11:47:23.022Z,24.60
2022-11-10T11:51:34.397Z,22.98
2022-11-10T11:55:31.372Z,23.95
2022-11-10T11:59:37.257Z,24.00
2022-11-10T12:03:44.050Z,24.27
2022-11-10T12:07:45.547Z,21.55
2022-11-10T12:12:32.907Z,20.95
2022-11-10T12:16:26.855Z,20.65
2022-11-10T12:20:26.872Z,21.45
2022-11-10T12:24:30.417Z,23.13
2022-11-10T12:28:51.270Z,22.58
2022-11-10T12:33:38.118Z,24.73
2022-11-10T12:38:03.287Z,23.08
2022-11-10T12:42:05.928Z,24.17
2022-11-10T12:45:56.929Z,24.80
2022-11-10T12:49:47.061Z,25.55
2022-11-10T12:53:31.805Z,26.13
2022-11-10T12:57:18.480Z,26.10
2022-11-10T13:01:04.926Z,27.05
2022-11-10T13:04:48.960Z,32.80
2022-11-10T13:08:56.879Z,38.95
2022-11-10T13:12:37.239Z,38.70
2022-11-10T13:16:40.954Z,39.25
2022-11-10T13:20:40.174Z,35.95
2022-11-10T13:24:28.529Z,39.47
2022-11-10T13:28:36.739Z,38.75
2022-11-10T13:32:30.202Z,40.90
2022-11-10T13:36:13.021Z,42.20
2022-11-10T13:40:16.680Z,36.70
2022-11-10T13:43:58.803Z,39.17
2022-11-10T13:47:57.786Z,38.47
2022-11-10T13:51:50.739Z,39.97
2022-11-10T13:56:07.882Z,41.30
2022-11-10T13:59:58.164Z,36.78
2022-11-10T14:04:06.701Z,34.75
2022-11-10T14:07:47.674Z,35.47
2022-11-10T14:11:38.528Z,39.65
2022-11-10T14:15:41.804Z,34.58
2022-11-10T14:19:45.021Z,40.63
2022-11-10T14:23:30.617Z,35.90
2022-11-10T14:27:24.422Z,40.65
2022-11-10T14:31:06.041Z,44.13
2022-11-10T14:34:52.317Z,40.08
2022-11-10T14:38:34.133Z,37.25
2022-11-10T14:42:35.806Z,42.58
2022-11-10T14:46:18.714Z,35.88
2022-11-10T14:50:13.773Z,41.70
2022-11-10T14:53:56.485Z,39.95
2022-11-10T14:57:38.196Z,36.58
2022-11-10T15:01:36.854Z,40.08
2022-11-10T15:05:21.585Z,40.90
2022-11-10T15:09:15.518Z,41.67
2022-11-10T15:13:04.556Z,43.92
2022-11-10T15:17:03.780Z,43.30
2022-11-10T15:20:46.401Z,41.20
2022-11-10T15:24:26.956Z,39.05
2022-11-10T15:31:59.362Z,42.10
2022-11-10T15:35:41.277Z,45.75
2022-11-10T15:39:29.968Z,44.17
2022-11-10T15:43:28.471Z,42.80
2022-11-10T15:47:12.667Z,41.88
2022-11-10T15:51:04.437Z,44.63
2022-11-10T15:54:45.862Z,42.45
2022-11-10T15:58:27.971Z,40.92
2022-11-10T16:02:24.201Z,47.00
2022-11-10T16:06:04.975Z,47.20
2022-11-10T16:09:46.639Z,45.78
2022-11-10T16:13:30.425Z,45.13
2022-11-10T16:17:17.621Z,48.63
2022-11-10T16:20:58.486Z,50.58
2022-11-10T16:24:42.930Z,46.83
2022-11-10T16:28:26.535Z,57.45
2022-11-10T16:32:07.664Z,49.45
2022-11-10T16:35:53.051Z,52.28
2022-11-10T16:39:33.465Z,47.95
2022-11-10T16:43:21.170Z,48.90
2022-11-10T16:47:04.110Z,48.45
2022-11-10T16:51:12.533Z,54.38
2022-11-10T16:54:53.345Z,46.38
2022-11-10T17:02:35.506Z,45.28
2022-11-10T17:06:19.225Z,41.83
2022-11-10T17:20:11.509Z,45.15
2022-11-10T17:26:59.243Z,49.80
2022-11-10T17:30:42.314Z,49.88
2022-11-10T17:34:22.757Z,51.30
2022-11-10T17:38:03.222Z,54.28
2022-11-10T17:41:48.775Z,58.80
2022-11-10T17:49:32.667Z,58.42
2022-11-10T17:53:26.324Z,60.50
2022-11-10T17:57:10.056Z,54.58
2022-11-10T18:00:50.420Z,58.13
2022-11-10T18:04:57.116Z,50.35
2022-11-10T18:08:39.866Z,57.08
2022-11-10T18:12:24.066Z,56.60
2022-11-10T18:16:09.883Z,57.90
2022-11-10T18:19:50.194Z,51.22
2022-11-10T18:23:31.080Z,59.65
2022-11-10T18:27:11.273Z,63.15
2022-11-10T18:30:51.567Z,54.45
2022-11-10T18:34:32.012Z,51.80
2022-11-10T18:41:56.839Z,56.72
2022-11-10T18:46:03.112Z,60.45
2022-11-10T18:49:56.895Z,59.05
2022-11-10T18:53:38.805Z,62.65
2022-11-10T18:57:27.522Z,58.17
2022-11-10T19:01:11.411Z,62.05
2022-11-10T19:04:56.318Z,55.22
2022-11-10T19:08:44.054Z,58.00
2022-11-10T19:12:26.733Z,50.17
2022-11-10T19:16:10.085Z,56.90
2022-11-10T19:19:55.978Z,61.10
2022-11-10T19:24:01.134Z,65.18
2022-11-10T19:27:45.885Z,60.85
2022-11-10T19:31:30.123Z,57.47
2022-11-10T19:35:13.776Z,59.35
2022-11-10T19:38:56.124Z,67.13
2022-11-10T19:42:39.637Z,66.70
2022-11-10T19:46:25.594Z,69.53
2022-11-10T19:50:06.607Z,69.93
2022-11-10T19:57:30.008Z,63.22
2022-11-10T20:01:11.597Z,68.50
2022-11-10T20:05:11.630Z,63.13
2022-11-10T20:08:52.315Z,62.40
2022-11-10T20:12:32.952Z,55.42
2022-11-10T20:16:13.424Z,56.10
2022-11-10T20:19:54.081Z,60.38
2022-11-10T20:23:34.682Z,54.20
2022-11-10T20:27:17.606Z,52.97
2022-11-10T20:30:59.717Z,58.72
2022-11-10T20:34:40.704Z,58.58
2022-11-10T20:38:21.735Z,71.25
2022-11-10T20:45:42.875Z,54.85
2022-11-10T20:49:23.387Z,58.80
2022-11-10T20:53:05.815Z,61.35
2022-11-10T20:56:46.432Z,59.42
2022-11-10T21:04:07.941Z,56.30
2022-11-10T21:07:48.326Z,56.15
2022-11-10T21:11:48.964Z,62.58
2022-11-10T21:15:29.796Z,59.70
2022-11-10T21:19:10.136Z,63.92
2022-11-10T21:22:50.844Z,61.17
2022-11-10T21:26:34.285Z,52.45
2022-11-10T21:30:23.245Z,57.10
2022-11-10T21:34:03.899Z,58.28
2022-11-10T21:37:45.034Z,53.85
2022-11-10T21:45:09.983Z,50.08
2022-11-10T21:48:52.717Z,47.47
2022-11-10T21:52:34.084Z,51.65
2022-11-10T21:59:57.701Z,42.38
2022-11-10T22:03:38.880Z,42.05
2022-11-10T22:07:25.543Z,47.95
2022-11-10T22:11:30.428Z,52.05
2022-11-10T22:15:36.016Z,38.40
2022-11-10T22:19:17.598Z,49.90
2022-11-10T22:22:59.192Z,41.28
2022-11-10T22:26:39.906Z,42.65
2022-11-10T22:34:00.632Z,42.90
2022-11-10T22:37:41.186Z,41.35
2022-11-10T22:41:40.078Z,41.67
2022-11-10T22:45:20.703Z,35.28
2022-11-10T22:49:02.625Z,35.92
2022-11-10T22:52:46.965Z,33.05
2022-11-10T22:56:28.154Z,37.40
2022-11-10T23:03:54.306Z,45.30
2022-11-10T23:07:34.746Z,44.50
2022-11-10T23:11:23.363Z,40.13
2022-11-10T23:15:04.319Z,34.00
2022-11-10T23:22:27.899Z,29.50
2022-11-10T23:26:11.562Z,33.55
2022-11-10T23:29:52.043Z,27.40
2022-11-10T23:33:33.735Z,26.98
2022-11-10T23:37:15.010Z,29.48
2022-11-10T23:40:56.507Z,30.92
2022-11-10T23:44:37.123Z,31.20
2022-11-10T23:48:17.497Z,31.50
2022-11-10T23:51:58.083Z,28.38
2022-11-10T23:55:41.437Z,32.15
2022-11-10T23:59:35.024Z,28.33
